Time;durP1;ratioP1;P1;durP2;ratioP2;P2;SDS_P1;SDS_P2;PMS_P1;PMS_P2;Temp;Humidity;BMP_temperature;BMP_pressure;BME280_temperature;BME280_humidity;BME280_pressure;Samples;Min_cycle;Max_cycle;Signal;HPM_P1;HPM_P2
2024/03/06 00:04:17;;;;;;;;;42.20;32.00;;;;;7.17;100.00;98792.66;5970050;29;96939;-90
2024/03/06 00:07:22;;;;;;;;;41.00;33.40;;;;;6.84;100.00;98704.13;5950051;29;96591;-90
2024/03/06 00:10:25;;;;;;;;;43.60;32.60;;;;;7.75;100.00;98867.06;5953706;29;96762;-90
2024/03/06 00:13:29;;;;;;;;;36.20;31.60;;;;;6.61;100.00;98735.75;5966327;29;97610;-90
2024/03/06 00:16:32;;;;;;;;;44.00;35.00;;;;;7.32;100.00;98865.72;5966435;29;96685;-89
2024/03/06 00:19:37;;;;;;;;;38.20;32.60;;;;;7.67;100.00;98887.88;5986406;29;96738;-89
2024/03/06 00:22:41;;;;;;;;;43.00;35.00;;;;;7.57;100.00;98872.19;5986869;29;96574;-90
2024/03/06 00:25:44;;;;;;;;;40.67;31.33;;;;;6.66;100.00;98742.16;5970415;29;96844;-89
2024/03/06 00:28:47;;;;;;;;;37.80;32.20;;;;;7.21;100.00;98845.66;5949619;29;96644;-89
2024/03/06 00:31:51;;;;;;;;;34.40;30.00;;;;;7.11;100.00;98858.63;5965581;29;96370;-89
2024/03/06 00:34:56;;;;;;;;;43.00;34.40;;;;;6.37;100.00;98707.63;5949869;29;97103;-89
2024/03/06 00:38:02;;;;;;;;;42.00;33.00;;;;;7.37;100.00;98914.22;5948102;29;96461;-89
2024/03/06 00:41:05;;;;;;;;;38.40;33.00;;;;;7.56;100.00;98910.75;5963387;29;96500;-90
2024/03/06 00:44:09;;;;;;;;;40.80;31.80;;;;;5.91;100.00;98678.78;5962555;29;97057;-89
2024/03/06 00:47:13;;;;;;;;;42.80;33.40;;;;;7.29;100.00;98887.53;5956556;29;97521;-89
2024/03/06 00:50:21;;;;;;;;;36.50;32.00;;;;;7.44;100.00;98916.91;5969384;29;97720;-89
2024/03/06 00:53:24;;;;;;;;;42.75;32.75;;;;;7.44;100.00;98928.44;5970964;29;96345;-89
2024/03/06 00:56:27;;;;;;;;;38.80;32.00;;;;;7.15;100.00;98928.72;5984112;29;97538;-89
2024/03/06 00:59:31;;;;;;;;;45.00;35.00;;;;;6.18;100.00;98775.28;5959494;29;96621;-89
2024/03/06 01:02:34;;;;;;;;;36.00;31.50;;;;;5.75;100.00;98687.09;5962338;29;96916;-89
2024/03/06 01:05:39;;;;;;;;;41.00;33.60;;;;;5.77;100.00;98695.72;5945734;29;97696;-89
2024/03/06 01:08:42;;;;;;;;;41.00;32.67;;;;;7.06;100.00;98911.16;5961102;29;96925;-89
2024/03/06 01:11:46;;;;;;;;;41.00;33.40;;;;;6.94;100.00;98882.22;5960892;29;97030;-89
2024/03/06 01:14:50;;;;;;;;;38.20;32.20;;;;;7.06;100.00;98905.81;5961225;29;96648;-89
2024/03/06 01:17:53;;;;;;;;;40.40;33.80;;;;;7.27;100.00;98921.78;5977235;29;96673;-89
2024/03/06 01:20:58;;;;;;;;;40.50;32.00;;;;;5.55;100.00;98680.78;5972367;29;96628;-89
2024/03/06 01:24:01;;;;;;;;;42.00;34.00;;;;;6.85;100.00;98885.28;5957875;29;97222;-89
2024/03/06 01:27:05;;;;;;;;;41.80;33.80;;;;;7.24;100.00;98914.97;5964133;29;96347;-89
2024/03/06 01:30:09;;;;;;;;;38.40;31.00;;;;;6.25;100.00;98750.22;5963765;29;96520;-89
2024/03/06 01:33:12;;;;;;;;;44.00;35.00;;;;;5.86;100.00;98712.47;5961857;29;97481;-89
2024/03/06 01:36:17;;;;;;;;;40.00;33.00;;;;;7.01;100.00;98910.94;5946118;29;96016;-89
2024/03/06 01:39:21;;;;;;;;;40.60;32.00;;;;;7.26;100.00;98906.72;5964352;29;97310;-89
2024/03/06 01:42:24;;;;;;;;;40.60;32.80;;;;;6.12;100.00;98754.66;5927056;29;96911;-89
2024/03/06 01:45:27;;;;;;;;;42.00;34.00;;;;;7.19;100.00;98924.63;5931776;29;97427;-89
2024/03/06 01:48:34;;;;;;;;;42.00;33.00;;;;;6.78;100.00;98879.91;5950317;29;96907;-91
2024/03/06 01:55:35;;;;;;;;;42.50;33.00;;;;;6.71;100.00;98887.06;5955961;29;96210;-91
2024/03/06 01:58:48;;;;;;;;;45.00;35.00;;;;;6.68;100.00;98895.50;5972249;29;96630;-91
2024/03/06 02:02:07;;;;;;;;;39.25;32.00;;;;;6.88;100.00;98931.28;5991533;23;96458;-53
2024/03/06 02:05:11;;;;;;;;;40.00;32.80;;;;;6.84;100.00;98934.56;6051213;28;96296;-54
2024/03/06 02:08:16;;;;;;;;;39.20;31.60;;;;;6.81;100.00;98937.63;6033949;28;96455;-54
2024/03/06 02:11:19;;;;;;;;;38.00;32.00;;;;;6.80;100.00;98923.38;6026251;29;97714;-54
2024/03/06 02:14:22;;;;;;;;;42.40;32.00;;;;;6.81;100.00;98932.25;6025348;28;96802;-54
2024/03/06 02:17:26;;;;;;;;;36.33;32.00;;;;;6.80;100.00;98928.75;6050805;28;96468;-54
2024/03/06 02:20:30;;;;;;;;;40.00;32.40;;;;;6.75;100.00;98931.19;6035738;28;96369;-54
2024/03/06 02:23:33;;;;;;;;;43.20;32.40;;;;;6.57;100.00;98905.94;6026382;29;98138;-54
2024/03/06 02:26:36;;;;;;;;;41.60;32.40;;;;;6.63;100.00;98921.22;6027048;29;96306;-54
2024/03/06 02:29:40;;;;;;;;;42.40;32.00;;;;;6.59;100.00;98934.19;6026798;29;96570;-54
2024/03/06 02:32:43;;;;;;;;;42.60;33.00;;;;;6.56;100.00;98939.91;6026828;29;96364;-54
2024/03/06 02:35:48;;;;;;;;;39.00;32.00;;;;;6.51;100.00;98931.63;6009141;29;100497;-54
2024/03/06 02:38:51;;;;;;;;;40.20;32.00;;;;;6.47;100.00;98936.56;6024821;29;97015;-58
2024/03/06 02:41:54;;;;;;;;;38.20;31.40;;;;;6.43;100.00;98937.97;6019262;29;96302;-58
2024/03/06 02:44:57;;;;;;;;;40.00;32.00;;;;;6.41;100.00;98936.50;6019116;29;96428;-58
2024/03/06 02:48:01;;;;;;;;;41.00;31.00;;;;;6.42;100.00;98941.66;6020983;29;96972;-58
2024/03/06 02:51:05;;;;;;;;;34.60;30.00;;;;;6.35;100.00;98948.00;6023033;29;96820;-58
2024/03/06 02:54:09;;;;;;;;;37.60;30.00;;;;;6.36;100.00;98947.78;6023139;29;96281;-58
2024/03/06 02:57:12;;;;;;;;;41.60;33.00;;;;;6.34;100.00;98957.88;6006354;29;96684;-58
2024/03/06 03:00:16;;;;;;;;;38.25;32.00;;;;;6.23;100.00;98939.66;6005637;29;96673;-58
2024/03/06 03:03:19;;;;;;;;;34.60;30.00;;;;;6.32;100.00;98959.06;6022628;29;96990;-58
2024/03/06 03:06:24;;;;;;;;;39.00;32.00;;;;;6.37;100.00;98959.31;6023067;29;96914;-58
2024/03/06 03:09:28;;;;;;;;;37.75;30.00;;;;;6.19;100.00;98927.69;6023475;29;96394;-58
2024/03/06 03:12:31;;;;;;;;;41.25;32.00;;;;;6.46;100.00;98966.19;6005885;29;96425;-58
2024/03/06 03:15:34;;;;;;;;;39.20;32.00;;;;;6.51;100.00;98966.44;6023174;29;96453;-58
2024/03/06 03:18:37;;;;;;;;;42.20;32.60;;;;;6.56;100.00;98966.69;6022639;29;96517;-58
2024/03/06 03:21:44;;;;;;;;;32.40;29.00;;;;;6.57;100.00;98965.69;6023045;29;96602;-58
2024/03/06 03:24:48;;;;;;;;;32.80;26.00;;;;;6.54;100.00;98971.44;6023160;29;96834;-58
2024/03/06 03:27:51;;;;;;;;;33.50;28.00;;;;;6.50;100.00;98981.69;6005728;29;96509;-58
2024/03/06 03:30:54;;;;;;;;;38.40;30.00;;;;;6.36;100.00;98979.09;6022467;29;96344;-58
2024/03/06 03:33:57;;;;;;;;;39.00;30.00;;;;;6.25;100.00;98979.63;6022422;29;96308;-58
2024/03/06 03:37:02;;;;;;;;;36.60;29.80;;;;;6.23;100.00;98981.66;6022177;29;96944;-58
2024/03/06 03:40:07;;;;;;;;;33.80;28.80;;;;;6.28;100.00;98982.75;5999021;29;96439;-58
2024/03/06 03:43:11;;;;;;;;;36.80;30.00;;;;;6.35;100.00;98982.81;5999013;29;96416;-58
2024/03/06 03:46:14;;;;;;;;;37.80;30.80;;;;;6.41;100.00;98968.63;5998913;29;96762;-58
2024/03/06 03:49:17;;;;;;;;;33.40;28.00;;;;;6.37;100.00;98978.91;6000282;29;97558;-53
2024/03/06 03:52:22;;;;;;;;;34.00;26.00;;;;;6.42;100.00;98972.97;6027024;29;96424;-54
2024/03/06 03:55:25;;;;;;;;;27.00;24.50;;;;;6.50;100.00;98979.00;6029359;29;96517;-54
2024/03/06 03:58:28;;;;;;;;;31.00;27.00;;;;;6.56;100.00;98974.72;6029408;29;96351;-54
2024/03/06 04:01:32;;;;;;;;;31.33;26.33;;;;;6.63;100.00;98975.63;6029419;29;97968;-54
2024/03/06 04:04:35;;;;;;;;;28.50;24.00;;;;;6.65;100.00;98986.97;6029480;29;96346;-54
2024/03/06 04:07:39;;;;;;;;;28.00;24.00;;;;;6.68;100.00;98978.56;6029619;29;96349;-53
2024/03/06 04:10:44;;;;;;;;;29.40;25.40;;;;;6.72;100.00;98985.16;6029031;29;96606;-54
2024/03/06 04:13:48;;;;;;;;;31.00;28.00;;;;;6.76;100.00;98974.88;6030237;29;96437;-54
2024/03/06 04:16:51;;;;;;;;;33.80;28.80;;;;;6.71;100.00;98982.69;6011644;29;98539;-54
2024/03/06 04:19:55;;;;;;;;;33.50;24.75;;;;;6.70;100.00;98987.22;6030013;29;96970;-54
2024/03/06 04:23:00;;;;;;;;;30.80;27.00;;;;;6.65;100.00;98980.78;6028887;29;96316;-54
2024/03/06 04:26:03;;;;;;;;;32.40;26.40;;;;;6.65;100.00;98978.91;6036596;28;97946;-54
2024/03/06 04:29:06;;;;;;;;;31.00;27.20;;;;;6.71;100.00;98988.03;6052678;28;96400;-54
2024/03/06 04:32:09;;;;;;;;;27.40;24.20;;;;;6.73;100.00;98984.16;6014319;29;96928;-54
2024/03/06 04:35:13;;;;;;;;;35.00;27.80;;;;;6.77;100.00;98995.31;6028389;29;96291;-54
2024/03/06 04:38:17;;;;;;;;;28.00;24.40;;;;;6.79;100.00;98999.44;6028218;29;96558;-53
2024/03/06 04:41:21;;;;;;;;;31.40;27.00;;;;;6.77;100.00;98996.13;6026393;29;96546;-54
2024/03/06 04:44:24;;;;;;;;;28.50;24.50;;;;;6.80;100.00;98989.53;6028604;29;96338;-54
2024/03/06 04:47:27;;;;;;;;;31.75;28.00;;;;;6.66;100.00;98975.22;6011573;29;97599;-54
2024/03/06 04:50:32;;;;;;;;;31.25;28.00;;;;;6.79;100.00;98999.44;6025276;28;96478;-54
2024/03/06 04:53:37;;;;;;;;;27.75;23.75;;;;;6.78;100.00;99002.31;6009759;29;96288;-54
2024/03/06 04:56:40;;;;;;;;;29.40;27.20;;;;;6.78;100.00;98999.66;6027166;29;96760;-54
2024/03/06 04:59:43;;;;;;;;;29.50;27.00;;;;;6.77;100.00;99001.50;5999542;29;96979;-58
2024/03/06 05:02:46;;;;;;;;;29.40;26.40;;;;;6.78;100.00;99008.53;6016333;29;96416;-58
2024/03/06 05:06:07;;;;;;;;;34.00;28.00;;;;;6.76;100.00;99007.03;6020624;29;96565;-58
2024/03/06 05:09:29;;;;;;;;;31.60;25.00;;;;;6.79;100.00;99010.16;6011572;28;97234;-58
2024/03/06 05:12:50;;;;;;;;;33.00;28.25;;;;;6.79;100.00;99004.78;6000924;29;96745;-57
2024/03/06 05:16:10;;;;;;;;;29.00;25.50;;;;;6.82;100.00;99014.31;6020722;28;96422;-58
2024/03/06 05:19:31;;;;;;;;;28.60;25.60;;;;;6.72;100.00;99001.25;6016971;28;96359;-57
2024/03/06 05:22:52;;;;;;;;;33.80;27.20;;;;;6.82;100.00;99015.13;6015249;29;96369;-58
2024/03/06 05:26:14;;;;;;;;;30.00;28.00;;;;;6.82;100.00;99014.31;5998343;29;98766;-58
2024/03/06 05:29:36;;;;;;;;;28.00;26.25;;;;;6.85;100.00;99013.91;6014749;28;96702;-57
2024/03/06 05:32:56;;;;;;;;;34.00;29.50;;;;;6.87;100.00;99019.91;5993542;29;99680;-57
2024/03/06 05:36:17;;;;;;;;;35.75;31.00;;;;;6.78;100.00;99008.53;6019132;28;96819;-57
2024/03/06 05:39:38;;;;;;;;;28.00;22.20;;;;;6.90;100.00;99019.50;6018933;28;96580;-58
2024/03/06 05:43:00;;;;;;;;;26.20;23.20;;;;;6.96;100.00;99024.94;5995453;29;96772;-58
2024/03/06 05:46:21;;;;;;;;;29.20;25.00;;;;;7.01;100.00;99032.38;6018172;28;96482;-58
2024/03/06 05:49:41;;;;;;;;;29.60;25.00;;;;;7.02;100.00;99028.69;6011175;29;97205;-57
2024/03/06 05:53:02;;;;;;;;;29.50;26.00;;;;;6.94;100.00;99012.72;6013305;29;96366;-57
2024/03/06 05:56:23;;;;;;;;;35.00;28.60;;;;;7.12;100.00;99031.03;6015238;28;96382;-58
2024/03/06 05:59:45;;;;;;;;;30.00;26.00;;;;;7.09;100.00;99029.53;6000889;29;96788;-57
2024/03/06 06:02:48;;;;;;;;;35.40;27.60;;;;;7.06;100.00;99031.78;6018005;28;96274;-57
2024/03/06 06:05:51;;;;;;;;;32.00;29.75;;;;;7.05;100.00;99030.97;6017779;28;96535;-57
2024/03/06 06:08:54;;;;;;;;;35.20;30.00;;;;;7.02;100.00;99020.66;6007327;28;99345;-56
2024/03/06 06:11:57;;;;;;;;;36.20;30.20;;;;;7.12;100.00;99033.69;6036334;28;96435;-55
2024/03/06 06:15:02;;;;;;;;;34.20;26.20;;;;;7.13;100.00;99038.03;6036596;28;96471;-56
2024/03/06 06:18:06;;;;;;;;;34.80;27.80;;;;;7.18;100.00;99046.34;6008736;28;97141;-56
2024/03/06 06:21:09;;;;;;;;;30.00;26.40;;;;;7.22;100.00;99040.38;6041720;28;96267;-56
2024/03/06 06:24:12;;;;;;;;;32.00;30.00;;;;;7.22;100.00;99043.06;6068102;28;96162;-56
2024/03/06 06:27:16;;;;;;;;;34.50;28.50;;;;;7.02;100.00;99039.41;6067913;28;96304;-56
2024/03/06 06:30:20;;;;;;;;;31.20;26.80;;;;;6.91;100.00;99045.28;6030931;28;98430;-56
2024/03/06 06:33:23;;;;;;;;;27.40;24.40;;;;;6.90;100.00;99049.81;6053910;28;96307;-57
2024/03/06 06:36:27;;;;;;;;;29.00;25.60;;;;;6.88;100.00;99048.38;6054085;28;96343;-56
2024/03/06 06:39:30;;;;;;;;;32.00;28.00;;;;;6.81;100.00;99042.13;6054642;28;96782;-56
2024/03/06 06:42:33;;;;;;;;;31.50;27.00;;;;;6.92;100.00;99045.13;6053969;28;96269;-58
2024/03/06 06:45:38;;;;;;;;;26.60;24.00;;;;;6.82;100.00;99043.78;6054070;28;96582;-58
2024/03/06 06:48:42;;;;;;;;;35.50;28.50;;;;;6.71;100.00;99047.81;6038045;28;96271;-56
2024/03/06 06:51:45;;;;;;;;;35.80;28.80;;;;;6.69;100.00;99049.88;6115324;23;97914;-57
2024/03/06 06:54:49;;;;;;;;;31.60;28.00;;;;;6.69;100.00;99044.50;6014119;28;96916;-58
2024/03/06 06:57:52;;;;;;;;;32.00;27.00;;;;;6.45;100.00;99026.97;6031038;28;96407;-58
2024/03/06 07:00:57;;;;;;;;;25.60;21.00;;;;;6.52;100.00;99051.16;6031072;28;96304;-58
2024/03/06 07:04:00;;;;;;;;;31.00;26.00;;;;;6.56;100.00;99055.09;6030834;28;96348;-58
2024/03/06 07:07:03;;;;;;;;;32.20;26.80;;;;;6.63;100.00;99039.91;6060966;23;96305;-58
2024/03/06 07:10:08;;;;;;;;;30.80;27.80;;;;;6.58;100.00;99041.50;6022726;28;97301;-58
2024/03/06 07:13:31;;;;;;;;;33.20;28.80;;;;;6.78;100.00;99045.19;6053006;28;96810;-57
2024/03/06 07:16:41;;;;;;;;;34.40;29.40;;;;;5.16;100.00;98799.69;6037480;28;97899;-57
2024/03/06 07:19:44;;;;;;;;;35.50;29.75;;;;;6.92;100.00;99041.59;5990756;29;96552;-58
2024/03/06 07:22:47;;;;;;;;;34.80;29.00;;;;;7.00;100.00;99044.13;5976207;29;96761;-57
2024/03/06 07:25:50;;;;;;;;;36.25;30.00;;;;;6.98;100.00;99046.19;5976053;29;96266;-57
2024/03/06 07:28:53;;;;;;;;;39.60;32.40;;;;;7.06;100.00;99046.03;5974244;29;96692;-57
2024/03/06 07:31:58;;;;;;;;;39.00;32.00;;;;;7.15;100.00;99046.69;5974751;29;96899;-57
2024/03/06 07:35:01;;;;;;;;;45.00;34.00;;;;;7.21;100.00;99052.13;5975430;29;96896;-57
2024/03/06 07:38:05;;;;;;;;;39.40;33.00;;;;;7.16;100.00;99048.38;5974425;29;96470;-58
2024/03/06 07:41:08;;;;;;;;;44.25;35.00;;;;;7.13;100.00;99048.78;5975809;29;96444;-57
2024/03/06 07:44:11;;;;;;;;;45.00;33.40;;;;;7.16;100.00;99038.47;5974583;29;96325;-57
2024/03/06 07:47:16;;;;;;;;;43.75;34.75;;;;;7.26;100.00;99046.16;5975561;29;96397;-57
2024/03/06 07:50:19;;;;;;;;;45.00;35.00;;;;;7.34;100.00;99057.56;5975046;29;96815;-57
2024/03/06 07:53:23;;;;;;;;;43.20;34.00;;;;;7.40;100.00;99054.09;5975466;29;96426;-58
2024/03/06 07:56:26;;;;;;;;;44.80;34.00;;;;;7.49;100.00;99057.44;5975448;29;96549;-58
2024/03/06 07:59:30;;;;;;;;;45.00;34.00;;;;;7.62;100.00;99060.22;5973720;29;97099;-57
2024/03/06 08:02:35;;;;;;;;;47.20;34.80;;;;;7.67;100.00;99063.09;5975283;29;96345;-58
2024/03/06 08:05:38;;;;;;;;;44.80;33.00;;;;;7.73;100.00;99067.69;5975545;29;96368;-57
2024/03/06 08:08:43;;;;;;;;;40.60;33.00;;;;;7.79;100.00;99064.22;5975501;29;96518;-58
2024/03/06 08:11:47;;;;;;;;;43.20;33.00;;;;;7.88;100.00;99069.41;5975239;29;97631;-57
2024/03/06 08:14:50;;;;;;;;;33.60;31.00;;;;;7.94;100.00;99072.13;5975401;29;96603;-58
2024/03/06 08:17:55;;;;;;;;;37.00;32.00;;;;;7.99;100.00;99069.66;5974511;29;96286;-58
2024/03/06 08:20:58;;;;;;;;;43.20;32.20;;;;;7.98;100.00;99053.75;5975373;29;96392;-57
2024/03/06 08:24:01;;;;;;;;;33.00;30.00;;;;;8.06;100.00;99067.03;5974702;29;96482;-58
2024/03/06 08:27:04;;;;;;;;;36.33;30.00;;;;;8.01;100.00;99053.38;5973531;29;96441;-58
2024/03/06 08:30:09;;;;;;;;;37.80;31.40;;;;;8.12;100.00;99076.94;5978957;29;97033;-54
2024/03/06 08:33:14;;;;;;;;;39.40;32.00;;;;;8.09;100.00;99069.28;5981127;29;96329;-54
2024/03/06 08:36:17;;;;;;;;;43.40;32.40;;;;;8.14;100.00;99081.09;5980702;29;96196;-54
2024/03/06 08:39:20;;;;;;;;;39.00;32.00;;;;;8.14;100.00;99075.72;5981454;29;96285;-54
2024/03/06 08:42:23;;;;;;;;;43.40;35.00;;;;;8.11;100.00;99083.34;5981676;29;96393;-54
2024/03/06 08:45:26;;;;;;;;;36.60;30.00;;;;;8.11;100.00;99075.31;5980475;29;97525;-54
2024/03/06 08:48:31;;;;;;;;;38.00;33.00;;;;;8.04;100.00;99082.50;5981678;29;96853;-54
2024/03/06 08:51:34;;;;;;;;;43.20;32.00;;;;;7.94;100.00;99079.34;5981830;29;96340;-54
2024/03/06 08:54:37;;;;;;;;;33.20;30.60;;;;;7.91;100.00;99083.28;5980959;29;96324;-53
2024/03/06 08:57:40;;;;;;;;;38.00;33.00;;;;;7.86;100.00;99085.72;5980065;29;96392;-54
2024/03/06 09:00:44;;;;;;;;;36.00;32.00;;;;;7.83;100.00;99088.78;5981317;29;97469;-54
2024/03/06 09:03:48;;;;;;;;;34.60;30.00;;;;;7.90;100.00;99096.88;5980301;29;96294;-53
2024/03/06 09:06:51;;;;;;;;;36.40;30.00;;;;;7.93;100.00;99094.63;5980979;29;96363;-54
2024/03/06 09:09:54;;;;;;;;;34.75;30.00;;;;;7.97;100.00;99090.50;5994928;29;96291;-54
2024/03/06 09:12:57;;;;;;;;;39.00;30.00;;;;;8.07;100.00;99092.81;5981377;29;96284;-53
2024/03/06 09:16:01;;;;;;;;;32.40;30.00;;;;;8.12;100.00;99090.34;5981490;29;96618;-54
2024/03/06 09:19:05;;;;;;;;;38.40;32.20;;;;;8.03;100.00;99070.09;5980526;29;96409;-54
2024/03/06 09:22:08;;;;;;;;;36.00;30.00;;;;;8.18;100.00;99087.69;5981003;29;96252;-53
2024/03/06 09:25:13;;;;;;;;;34.00;30.00;;;;;8.23;100.00;99089.78;5980787;29;96265;-54
2024/03/06 09:28:18;;;;;;;;;33.50;28.75;;;;;8.12;100.00;99085.00;5980392;29;96249;-54
2024/03/06 09:31:21;;;;;;;;;34.00;30.00;;;;;8.12;100.00;99093.88;5978267;29;96565;-53
2024/03/06 09:34:26;;;;;;;;;34.20;30.00;;;;;8.12;100.00;99088.50;5980264;29;96364;-54
2024/03/06 09:37:30;;;;;;;;;36.20;30.00;;;;;8.12;100.00;99087.66;5981393;29;97544;-55
2024/03/06 09:40:33;;;;;;;;;32.00;27.00;;;;;8.09;100.00;99085.41;5994918;29;96644;-54
2024/03/06 09:43:36;;;;;;;;;32.60;30.00;;;;;8.17;100.00;99091.41;5981960;29;99235;-54
2024/03/06 09:46:44;;;;;;;;;36.40;29.60;;;;;8.14;100.00;99085.63;5980339;29;96418;-54
2024/03/06 09:49:48;;;;;;;;;37.40;30.40;;;;;8.14;100.00;99083.78;5979474;29;96398;-54
2024/03/06 09:52:53;;;;;;;;;31.25;26.50;;;;;8.19;100.00;99092.06;5980221;29;96196;-54
2024/03/06 09:55:57;;;;;;;;;35.00;29.75;;;;;8.25;100.00;99077.00;5980040;29;96990;-52
2024/03/06 09:59:01;;;;;;;;;35.00;30.00;;;;;8.31;100.00;99086.94;5981152;29;96816;-53
2024/03/06 10:02:22;;;;;;;;;32.40;28.20;;;;;8.22;100.00;99072.00;5980373;29;96922;-53
2024/03/06 10:05:30;;;;;;;;;34.33;30.00;;;;;8.37;100.00;99090.69;5978944;29;96746;-53
2024/03/06 10:08:34;;;;;;;;;37.00;30.00;;;;;8.32;100.00;99091.28;5979956;29;96333;-54
2024/03/06 10:11:40;;;;;;;;;33.00;28.20;;;;;8.37;100.00;99096.06;5981382;29;96279;-53
2024/03/06 10:14:50;;;;;;;;;31.00;27.60;;;;;8.37;100.00;99090.69;5980040;29;96240;-53
2024/03/06 10:17:53;;;;;;;;;34.80;30.00;;;;;8.38;100.00;99095.03;5983668;29;97061;-54
2024/03/06 10:20:58;;;;;;;;;36.60;32.00;;;;;8.37;100.00;99091.50;5997240;29;96336;-55
2024/03/06 10:24:01;;;;;;;;;35.75;30.00;;;;;8.46;100.00;99095.66;5984018;29;97411;-54
2024/03/06 10:27:05;;;;;;;;;31.60;30.00;;;;;8.50;100.00;99098.78;6001553;29;96415;-55
2024/03/06 10:30:11;;;;;;;;;38.00;32.00;;;;;8.50;100.00;99093.41;6001564;29;96942;-55
2024/03/06 10:33:16;;;;;;;;;31.60;29.00;;;;;8.54;100.00;99089.28;5971478;29;96440;-54
2024/03/06 10:36:21;;;;;;;;;37.20;31.00;;;;;8.50;100.00;99093.41;5978549;29;96326;-54
2024/03/06 10:39:25;;;;;;;;;40.60;32.00;;;;;8.59;100.00;99092.19;5978833;29;96623;-54
2024/03/06 10:42:29;;;;;;;;;39.40;31.00;;;;;8.64;100.00;99085.19;5980415;29;96327;-54
2024/03/06 10:45:42;;;;;;;;;42.00;33.40;;;;;8.62;100.00;99089.09;5980492;29;96211;-54
2024/03/06 10:48:45;;;;;;;;;35.25;32.00;;;;;8.65;100.00;99084.13;5980930;29;96307;-54
2024/03/06 10:55:34;;;;;;;;;39.60;32.00;;;;;8.67;100.00;99083.94;6437485;23;99618;-57
2024/03/06 11:02:49;;;;;;;;;30.50;28.25;;;;;8.73;100.00;99079.59;7381973;23;98471;31
2024/03/06 11:06:13;;;;;;;;;40.50;31.50;;;;;8.72;100.00;99086.00;6238040;23;98289;31
2024/03/06 11:09:16;;;;;;;;;34.50;30.00;;;;;8.73;100.00;99084.97;6359965;23;98588;-57
2024/03/06 11:16:08;;;;;;;;;35.67;31.33;;;;;8.75;100.00;99086.41;6207134;23;99049;-55
2024/03/06 11:19:11;;;;;;;;;36.00;30.00;;;;;8.85;100.00;99080.63;6012376;28;97826;-58
2024/03/06 11:26:06;;;;;;;;;33.60;30.00;;;;;8.91;100.00;99077.13;6108482;23;98514;-56
2024/03/06 11:29:10;;;;;;;;;39.40;32.00;;;;;8.86;100.00;99079.59;6095344;23;97195;-56
2024/03/06 11:36:16;;;;;;;;;34.00;29.00;;;;;8.96;100.00;99069.25;6003483;23;97081;-57
2024/03/06 11:39:20;;;;;;;;;38.00;31.50;;;;;8.89;100.00;99071.16;6052946;23;98107;-56
2024/03/06 11:42:34;;;;;;;;;37.00;30.25;;;;;8.66;100.00;99050.84;6096763;23;97842;-57
2024/03/06 11:45:46;;;;;;;;;37.00;30.60;;;;;8.78;100.00;99071.75;6007490;28;96711;-56
2024/03/06 11:52:26;;;;;;;;;36.00;31.40;;;;;8.86;100.00;99063.47;6201314;23;98511;-57
2024/03/06 11:55:31;;;;;;;;;39.60;32.00;;;;;8.80;100.00;99069.66;6264875;23;97543;-56
2024/03/06 11:58:38;;;;;;;;;39.00;31.00;;;;;8.78;100.00;99058.31;6050463;23;96758;31
2024/03/06 12:01:42;;;;;;;;;33.00;30.00;;;;;8.88;100.00;99059.56;5973667;29;97188;-57
2024/03/06 12:04:46;;;;;;;;;39.60;32.40;;;;;8.84;100.00;99054.81;5970008;29;96794;-57
2024/03/06 12:07:51;;;;;;;;;39.60;33.00;;;;;8.84;100.00;99058.31;5969177;29;96528;-57
2024/03/06 12:10:55;;;;;;;;;40.40;34.00;;;;;8.84;100.00;99061.00;5976429;29;99403;-58
2024/03/06 12:13:58;;;;;;;;;37.00;31.00;;;;;8.74;100.00;99054.38;5970923;29;97404;-57
2024/03/06 12:17:03;;;;;;;;;40.00;33.00;;;;;8.72;100.00;99061.81;5968634;29;97487;-57
2024/03/06 12:20:14;;;;;;;;;39.00;32.00;;;;;8.71;100.00;99055.59;5974763;29;96922;-58
2024/03/06 12:23:23;;;;;;;;;42.60;33.40;;;;;8.81;100.00;99064.09;5965458;29;97448;-58
2024/03/06 12:26:26;;;;;;;;;45.80;34.80;;;;;8.95;100.00;99059.53;5972306;29;96469;-58
2024/03/06 12:29:30;;;;;;;;;40.50;33.00;;;;;8.93;100.00;99042.81;5970355;29;97004;-58
2024/03/06 12:32:34;;;;;;;;;38.00;32.00;;;;;8.99;100.00;99053.53;5979143;29;96927;-57
2024/03/06 12:35:38;;;;;;;;;37.80;32.40;;;;;8.92;100.00;99052.72;5976196;29;96939;-57
2024/03/06 12:38:43;;;;;;;;;40.00;32.00;;;;;8.87;100.00;99047.13;5971163;29;96901;-57
2024/03/06 12:41:46;;;;;;;;;40.40;34.40;;;;;8.84;100.00;99052.94;5971014;29;96417;-57
2024/03/06 12:44:49;;;;;;;;;43.00;33.80;;;;;8.85;100.00;99049.19;5971152;29;96487;-58
2024/03/06 12:47:53;;;;;;;;;43.00;35.00;;;;;8.85;100.00;99053.75;5971247;29;96946;-57
2024/03/06 12:51:04;;;;;;;;;37.00;32.40;;;;;8.64;100.00;99009.94;5970395;29;96851;-57
2024/03/06 12:54:09;;;;;;;;;45.00;34.00;;;;;8.94;100.00;99058.72;5965748;29;97050;-57
2024/03/06 12:57:13;;;;;;;;;46.00;36.20;;;;;8.99;100.00;99058.91;5966814;29;96408;-57
2024/03/06 13:00:16;;;;;;;;;46.80;37.40;;;;;8.96;100.00;99058.50;5966265;29;97030;-57
2024/03/06 13:03:20;;;;;;;;;49.60;39.00;;;;;8.96;100.00;99050.44;5965922;29;96890;-58
2024/03/06 13:06:23;;;;;;;;;50.25;41.00;;;;;8.95;100.00;99051.47;5973777;29;96949;-58
2024/03/06 13:09:27;;;;;;;;;50.00;40.00;;;;;8.96;100.00;99059.34;5963361;28;96612;-58
2024/03/06 13:12:30;;;;;;;;;51.50;39.50;;;;;8.97;100.00;99061.00;5972598;29;96256;-58
2024/03/06 13:15:34;;;;;;;;;49.80;39.40;;;;;8.93;100.00;99057.06;5971784;29;96883;-58
2024/03/06 13:18:38;;;;;;;;;47.00;37.00;;;;;8.89;100.00;99052.31;5960782;29;96388;-58
2024/03/06 13:21:41;;;;;;;;;46.60;36.00;;;;;8.90;100.00;99060.16;5948811;29;96882;-58
2024/03/06 13:24:46;;;;;;;;;47.00;35.00;;;;;8.96;100.00;99061.19;5964326;29;97740;-58
2024/03/06 13:27:54;;;;;;;;;42.00;34.20;;;;;8.90;100.00;99053.94;5967875;29;96479;-58
2024/03/06 13:30:57;;;;;;;;;45.00;36.00;;;;;8.84;100.00;99065.56;5969856;29;96345;-57
2024/03/06 13:34:02;;;;;;;;;45.00;35.00;;;;;8.83;100.00;99050.44;5974073;29;96549;-57
2024/03/06 13:37:09;;;;;;;;;40.50;33.00;;;;;8.88;100.00;99039.91;5951699;29;97956;-57
2024/03/06 13:40:15;;;;;;;;;39.00;32.60;;;;;8.90;100.00;99040.50;5965817;29;96428;-57
2024/03/06 13:43:22;;;;;;;;;38.00;32.40;;;;;8.86;100.00;99045.47;5970325;29;96928;-57
2024/03/06 13:46:26;;;;;;;;;39.60;33.00;;;;;8.85;100.00;99038.44;5967454;29;96504;-57
2024/03/06 13:49:37;;;;;;;;;38.80;32.00;;;;;8.84;100.00;99049.44;5963085;29;96882;-58
2024/03/06 13:52:40;;;;;;;;;37.00;30.00;;;;;8.81;100.00;99039.91;5967700;29;96534;-58
2024/03/06 13:55:45;;;;;;;;;39.00;31.50;;;;;8.68;100.00;99045.28;5961485;29;96313;-57
2024/03/06 13:58:48;;;;;;;;;40.00;33.00;;;;;8.66;100.00;99048.16;5973808;29;96282;-57
2024/03/06 14:01:51;;;;;;;;;37.60;32.60;;;;;8.65;100.00;99051.88;5971671;29;96611;-57
2024/03/06 14:04:54;;;;;;;;;39.00;32.00;;;;;8.65;100.00;99049.19;5970197;29;96368;-57
2024/03/06 14:07:57;;;;;;;;;34.50;30.50;;;;;8.71;100.00;99044.84;5973171;29;96866;-57
2024/03/06 14:11:05;;;;;;;;;38.40;33.00;;;;;8.79;100.00;99041.16;5966729;29;96430;-57
2024/03/06 14:14:08;;;;;;;;;41.60;33.00;;;;;8.83;100.00;99040.53;5973138;29;96254;-58
2024/03/06 14:17:12;;;;;;;;;40.00;32.00;;;;;8.90;100.00;99045.88;5967325;29;97077;-57
2024/03/06 14:20:15;;;;;;;;;38.20;31.20;;;;;8.87;100.00;99027.50;5964147;29;96355;-58
2024/03/06 14:23:20;;;;;;;;;40.50;32.00;;;;;8.75;100.00;99015.72;5961338;29;96405;-58
2024/03/06 14:26:26;;;;;;;;;41.00;33.00;;;;;8.94;100.00;99053.31;5961796;29;97561;-57
2024/03/06 14:29:31;;;;;;;;;41.00;33.00;;;;;8.88;100.00;99047.97;5959197;29;99163;-58
2024/03/06 14:32:35;;;;;;;;;38.20;33.00;;;;;8.87;100.00;99046.31;5963457;29;96397;-57
2024/03/06 14:35:38;;;;;;;;;45.40;33.40;;;;;8.93;100.00;99040.13;5955676;29;98571;-57
2024/03/06 14:38:41;;;;;;;;;45.40;35.80;;;;;8.92;100.00;99043.81;5963621;29;96680;-57
2024/03/06 14:41:46;;;;;;;;;40.00;32.80;;;;;8.91;100.00;99045.69;5950370;29;96664;-57